createdAt,value
2022-11-02T00:01:56.301Z,100097.69
2022-11-02T00:03:58.511Z,100099.56
2022-11-02T00:06:00.815Z,100093.19
2022-11-02T00:08:02.955Z,100100.31
2022-11-02T00:10:05.541Z,100091.25
2022-11-02T00:12:08.097Z,100085.09
2022-11-02T00:14:10.726Z,100091.25
2022-11-02T00:16:15.939Z,100085.91
2022-11-02T00:18:17.995Z,100091.41
2022-11-02T00:20:23.782Z,100094.78
2022-11-02T00:22:27.205Z,100095.50
2022-11-02T00:24:31.337Z,100093.81
2022-11-02T00:26:36.342Z,100097.22
2022-11-02T00:28:38.426Z,100096.22
2022-11-02T00:30:41.284Z,100090.78
2022-11-02T00:32:43.632Z,100096.38
2022-11-02T00:34:45.643Z,100101.97
2022-11-02T00:36:51.740Z,100095.69
2022-11-02T00:38:56.544Z,100089.41
2022-11-02T00:41:00.553Z,100086.91
2022-11-02T00:43:02.791Z,100085.59
2022-11-02T00:45:05.469Z,100084.78
2022-11-02T00:47:07.714Z,100086.41
2022-11-02T00:49:10.155Z,100086.91
2022-11-02T00:51:12.269Z,100090.28
2022-11-02T00:53:17.126Z,100092.34
2022-11-02T00:55:26.373Z,100097.53
2022-11-02T00:57:31.817Z,100100.09
2022-11-02T00:59:33.984Z,100108.00
2022-11-02T01:01:37.082Z,100107.13
2022-11-02T01:03:42.437Z,100112.44
2022-11-02T01:09:47.059Z,100104.31
2022-11-02T01:11:49.147Z,100099.00
2022-11-02T01:14:41.715Z,100094.78
2022-11-02T01:18:52.531Z,100093.59
2022-11-02T01:20:58.780Z,100100.75
2022-11-02T01:23:03.262Z,100098.84
2022-11-02T01:25:06.144Z,100084.31
2022-11-02T01:27:08.474Z,100080.94
2022-11-02T01:29:11.765Z,100083.78
2022-11-02T01:31:14.413Z,100087.59
2022-11-02T01:33:16.436Z,100079.25
2022-11-02T01:35:21.628Z,100081.09
2022-11-02T01:37:23.675Z,100075.47
2022-11-02T01:39:25.703Z,100079.84
2022-11-02T01:41:27.759Z,100078.94
2022-11-02T01:43:33.262Z,100080.88
2022-11-02T01:45:35.739Z,100086.28
2022-11-02T01:47:41.480Z,100083.59
2022-11-02T01:49:46.690Z,100083.63
2022-11-02T01:52:05.952Z,100093.66
2022-11-02T01:54:16.249Z,100086.13
2022-11-02T01:58:28.953Z,100085.16
2022-11-02T02:00:31.521Z,100095.94
2022-11-02T02:02:40.155Z,100093.28
2022-11-02T02:04:44.274Z,100095.13
2022-11-02T02:06:46.635Z,100087.06
2022-11-02T02:08:51.633Z,100085.25
2022-11-02T02:10:57.880Z,100084.34
2022-11-02T02:13:01.108Z,100088.84
2022-11-02T02:15:04.214Z,100087.00
2022-11-02T02:17:12.609Z,100094.31
2022-11-02T02:19:44.856Z,100091.75
2022-11-02T02:21:52.834Z,100087.00
2022-11-02T02:24:16.562Z,100081.75
2022-11-02T02:26:59.776Z,100089.94
2022-11-02T02:29:10.997Z,100077.28
2022-11-02T02:31:24.771Z,100079.91
2022-11-02T02:33:37.535Z,100079.03
2022-11-02T02:36:03.461Z,100077.16
2022-11-02T02:38:11.848Z,100088.75
2022-11-02T02:40:19.588Z,100088.03
2022-11-02T02:42:34.094Z,100108.00
2022-11-02T02:44:39.440Z,100093.38
2022-11-02T02:46:56.257Z,100089.88
2022-11-02T02:49:01.586Z,100083.59
2022-11-02T02:51:12.837Z,100079.25
2022-11-02T02:53:16.796Z,100073.63
2022-11-02T02:55:27.023Z,100075.53
2022-11-02T02:57:32.626Z,100078.75
2022-11-02T02:59:46.422Z,100085.75
2022-11-02T03:01:50.112Z,100078.38
2022-11-02T03:03:52.395Z,100094.69
2022-11-02T03:06:07.531Z,100092.13
2022-11-02T03:08:17.010Z,100080.94
2022-11-02T03:10:43.359Z,100092.78
2022-11-02T03:13:07.054Z,100086.28
2022-11-02T03:15:16.304Z,100081.97
2022-11-02T03:17:20.867Z,100083.69
2022-11-02T03:19:44.701Z,100091.09
2022-11-02T03:21:53.429Z,100099.81
2022-11-02T03:24:24.898Z,100093.66
2022-11-02T03:26:48.775Z,100098.03
2022-11-02T03:28:54.034Z,100097.13
2022-11-02T03:31:20.154Z,100101.63
2022-11-02T03:33:28.117Z,100093.22
2022-11-02T03:35:42.504Z,100103.41
2022-11-02T03:38:07.438Z,100103.44
2022-11-02T03:40:19.198Z,100096.22
2022-11-02T03:42:26.184Z,100097.16
2022-11-02T03:44:32.324Z,100094.47
2022-11-02T03:46:38.712Z,100100.03
2022-11-02T03:48:49.218Z,100091.09
2022-11-02T03:50:55.180Z,100094.63
2022-11-02T03:53:06.717Z,100100.09
2022-11-02T03:55:17.615Z,100093.75
2022-11-02T03:57:24.182Z,100096.22
2022-11-02T03:59:31.819Z,100093.50
2022-11-02T04:01:42.301Z,100098.91
2022-11-02T04:03:46.481Z,100097.81
2022-11-02T04:05:48.711Z,100104.97
2022-11-02T04:08:14.837Z,100097.81
2022-11-02T04:10:18.710Z,100099.56
2022-11-02T04:12:39.453Z,100088.84
2022-11-02T04:14:43.055Z,100096.00
2022-11-02T04:17:11.305Z,100104.97
2022-11-02T04:19:30.108Z,100102.53
2022-11-02T04:21:38.251Z,100096.38
2022-11-02T04:23:58.951Z,100096.22
2022-11-02T04:26:01.266Z,100095.44
2022-11-02T04:28:18.154Z,100095.28
2022-11-02T04:30:24.358Z,100087.38
2022-11-02T04:32:51.644Z,100091.97
2022-11-02T04:34:53.877Z,100089.06
2022-11-02T04:36:56.324Z,100097.22
2022-11-02T04:38:59.109Z,100096.38
2022-11-02T04:41:31.237Z,100100.25
2022-11-02T04:43:34.207Z,100101.09
2022-11-02T04:45:36.635Z,100101.09
2022-11-02T04:47:39.065Z,100090.28
2022-11-02T04:49:41.238Z,100100.09
2022-11-02T04:51:49.905Z,100108.22
2022-11-02T04:53:58.183Z,100103.75
2022-11-02T04:56:00.247Z,100109.88
2022-11-02T04:58:03.274Z,100106.38
2022-11-02T05:00:07.918Z,100112.59
2022-11-02T05:02:10.244Z,100112.91
2022-11-02T05:04:13.407Z,100110.84
2022-11-02T05:06:16.758Z,100117.94
2022-11-02T05:08:18.643Z,100116.16
2022-11-02T05:10:20.733Z,100114.38
2022-11-02T05:12:28.922Z,100112.75
2022-11-02T05:14:31.917Z,100119.91
2022-11-02T05:16:35.710Z,100115.09
2022-11-02T05:18:39.651Z,100119.63
2022-11-02T05:20:42.838Z,100124.06
2022-11-02T05:22:45.297Z,100126.72
2022-11-02T05:24:49.111Z,100125.75
2022-11-02T05:26:53.899Z,100123.06
2022-11-02T05:28:58.418Z,100122.03
2022-11-02T05:31:01.795Z,100123.72
2022-11-02T05:33:06.578Z,100128.47
2022-11-02T05:35:10.087Z,100137.41
2022-11-02T05:37:14.003Z,100151.88
2022-11-02T05:39:16.063Z,100161.75
2022-11-02T05:41:18.213Z,100152.81
2022-11-02T05:43:20.457Z,100154.59
2022-11-02T05:45:23.719Z,100160.00
2022-11-02T05:47:26.448Z,100159.25
2022-11-02T05:49:28.251Z,100171.03
2022-11-02T05:51:30.135Z,100173.81
2022-11-02T05:53:34.117Z,100177.25
2022-11-02T05:56:02.220Z,100185.59
2022-11-02T05:58:04.508Z,100185.28
2022-11-02T06:00:07.535Z,100189.84
2022-11-02T06:02:14.014Z,100187.84
2022-11-02T06:04:15.967Z,100182.69
2022-11-02T06:06:18.137Z,100187.13
2022-11-02T06:08:23.183Z,100184.63
2022-11-02T06:10:25.290Z,100189.78
2022-11-02T06:12:27.106Z,100187.06
2022-11-02T06:14:28.903Z,100183.47
2022-11-02T06:16:31.314Z,100181.66
2022-11-02T06:18:33.580Z,100185.22
2022-11-02T06:20:35.471Z,100186.16
2022-11-02T06:22:46.782Z,100185.50
2022-11-02T06:24:48.562Z,100191.47
2022-11-02T06:26:50.413Z,100192.25
2022-11-02T06:28:52.610Z,100196.63
2022-11-02T06:30:55.305Z,100206.69
2022-11-02T06:32:59.441Z,100206.78
2022-11-02T06:35:03.687Z,100208.22
2022-11-02T06:37:05.420Z,100209.25
2022-11-02T06:39:07.560Z,100214.50
2022-11-02T06:41:09.860Z,100226.28
2022-11-02T06:43:17.599Z,100220.88
2022-11-02T06:45:19.732Z,100220.72
2022-11-02T06:47:21.427Z,100224.16
2022-11-02T06:49:23.606Z,100222.31
2022-11-02T06:51:25.440Z,100228.50
2022-11-02T06:53:27.283Z,100230.31
2022-11-02T06:55:29.277Z,100226.72
2022-11-02T06:57:36.668Z,100233.97
2022-11-02T06:59:38.549Z,100234.63
2022-11-02T07:01:43.091Z,100238.16
2022-11-02T07:03:45.184Z,100239.91
2022-11-02T07:05:52.092Z,100239.16
2022-11-02T07:07:54.906Z,100247.16
2022-11-02T07:09:57.025Z,100242.59
2022-11-02T07:11:58.835Z,100244.28
2022-11-02T07:14:00.655Z,100236.31
2022-11-02T07:16:02.441Z,100240.81
2022-11-02T07:18:06.244Z,100238.81
2022-11-02T07:20:10.698Z,100242.38
2022-11-02T07:22:12.572Z,100238.81
2022-11-02T07:24:14.592Z,100239.63
2022-11-02T07:26:16.819Z,100245.03
2022-11-02T07:28:19.395Z,100246.88
2022-11-02T07:30:21.509Z,100246.78
2022-11-02T07:32:23.831Z,100252.28
2022-11-02T07:34:25.759Z,100245.91
2022-11-02T07:36:27.705Z,100254.03
2022-11-02T07:38:29.881Z,100249.34
2022-11-02T07:40:34.496Z,100244.88
2022-11-02T07:42:36.722Z,100250.16
2022-11-02T07:44:41.376Z,100252.72
2022-11-02T07:46:43.933Z,100262.88
2022-11-02T07:48:47.182Z,100257.41
2022-11-02T07:50:48.975Z,100256.38
2022-11-02T07:52:56.252Z,100249.34
2022-11-02T07:54:58.114Z,100247.28
2022-11-02T07:57:00.009Z,100252.72
2022-11-02T07:59:01.899Z,100252.97
2022-11-02T08:01:04.107Z,100261.00
2022-11-02T08:03:08.465Z,100248.47
2022-11-02T08:05:10.587Z,100249.22
2022-11-02T08:07:12.689Z,100250.00
2022-11-02T08:09:15.845Z,100244.59
2022-11-02T08:11:17.700Z,100248.91
2022-11-02T08:13:21.667Z,100251.63
2022-11-02T08:15:24.436Z,100261.66
2022-11-02T08:17:29.512Z,100247.97
2022-11-02T08:19:31.517Z,100251.34
2022-11-02T08:21:33.349Z,100251.34
2022-11-02T08:23:35.206Z,100246.72
2022-11-02T08:25:45.885Z,100253.09
2022-11-02T08:27:47.957Z,100249.38
2022-11-02T08:29:49.943Z,100235.81
2022-11-02T08:31:52.100Z,100239.34
2022-11-02T08:33:54.471Z,100240.06
2022-11-02T08:36:02.977Z,100249.16
2022-11-02T08:38:05.950Z,100240.81
2022-11-02T08:40:08.905Z,100242.50
2022-11-02T08:42:10.913Z,100245.06
2022-11-02T08:44:13.247Z,100237.75
2022-11-02T08:46:16.752Z,100239.63
2022-11-02T08:48:19.291Z,100253.13
2022-11-02T08:50:21.956Z,100251.13
2022-11-02T08:52:24.384Z,100252.09
2022-11-02T08:54:26.487Z,100246.53
2022-11-02T08:56:28.745Z,100249.88
2022-11-02T08:58:33.123Z,100246.38
2022-11-02T09:00:35.941Z,100238.88
2022-11-02T09:02:38.476Z,100235.53
2022-11-02T09:04:40.663Z,100231.88
2022-11-02T09:06:45.343Z,100229.00
2022-11-02T09:08:47.356Z,100227.19
2022-11-02T09:10:51.951Z,100231.50
2022-11-02T09:12:54.589Z,100227.03
2022-11-02T09:14:56.522Z,100233.34
2022-11-02T09:16:58.282Z,100226.97
2022-11-02T09:19:00.332Z,100232.22
2022-11-02T09:21:03.788Z,100237.47
2022-11-02T09:23:05.654Z,100218.59
2022-11-02T09:25:08.031Z,100218.28
2022-11-02T09:27:35.302Z,100209.72
2022-11-02T09:29:37.318Z,100205.69
2022-11-02T09:31:39.500Z,100203.88
2022-11-02T09:33:43.960Z,100202.91
2022-11-02T09:35:48.626Z,100210.31
2022-11-02T09:37:51.184Z,100212.97
2022-11-02T09:39:53.499Z,100228.31
2022-11-02T09:42:28.331Z,100253.63
2022-11-02T09:45:00.805Z,100264.69
2022-11-02T09:47:55.759Z,100259.91
2022-11-02T09:49:28.645Z,100257.19
2022-11-02T09:51:37.841Z,100258.28
2022-11-02T09:54:21.587Z,100276.34
2022-11-02T09:56:27.464Z,100269.78
2022-11-02T09:58:36.928Z,100264.38
2022-11-02T10:00:42.017Z,100262.31
2022-11-02T10:02:49.545Z,100265.88
2022-11-02T10:05:16.510Z,100266.13
2022-11-02T10:07:43.370Z,100267.94
2022-11-02T10:10:00.086Z,100266.03
2022-11-02T10:12:24.175Z,100262.88
2022-11-02T10:14:38.247Z,100264.84
2022-11-02T10:16:52.666Z,100264.72
2022-11-02T10:18:55.278Z,100270.00
2022-11-02T10:21:02.684Z,100263.69
2022-11-02T10:23:09.711Z,100258.41
2022-11-02T10:25:16.455Z,100255.78
2022-11-02T10:27:32.290Z,100260.19
2022-11-02T10:29:43.656Z,100253.78
2022-11-02T10:31:46.553Z,100248.22
2022-11-02T10:33:50.010Z,100247.34
2022-11-02T10:36:18.184Z,100241.19
2022-11-02T10:38:35.207Z,100246.31
2022-11-02T10:41:03.201Z,100251.66
2022-11-02T10:43:20.309Z,100246.31
2022-11-02T10:45:59.659Z,100240.88
2022-11-02T10:48:01.939Z,100247.69
2022-11-02T10:50:35.524Z,100246.09
2022-11-02T10:52:39.837Z,100245.75
2022-11-02T10:54:42.238Z,100239.28
2022-11-02T10:56:47.247Z,100240.09
2022-11-02T10:59:14.494Z,100250.41
2022-11-02T11:01:17.037Z,100250.94
2022-11-02T11:03:19.957Z,100244.66
2022-11-02T11:05:22.023Z,100249.91
2022-11-02T11:07:27.944Z,100242.97
2022-11-02T11:09:42.925Z,100243.78
2022-11-02T11:12:03.160Z,100234.84
2022-11-02T11:19:40.943Z,100220.41
2022-11-02T11:21:43.680Z,100211.94
2022-11-02T11:23:46.077Z,100210.91
2022-11-02T11:26:02.124Z,100207.50
2022-11-02T11:28:22.800Z,100206.63
2022-11-02T11:30:59.481Z,100199.75
2022-11-02T11:32:54.698Z,100199.66
2022-11-02T11:35:06.934Z,100185.94
2022-11-02T11:37:15.744Z,100189.63
2022-11-02T11:39:28.875Z,100198.72
2022-11-02T11:41:33.470Z,100182.53
2022-11-02T11:43:38.627Z,100190.72
2022-11-02T11:45:52.999Z,100190.72
2022-11-02T11:48:02.275Z,100187.38
2022-11-02T11:50:13.933Z,100187.72
2022-11-02T11:52:31.943Z,100190.59
2022-11-02T11:54:34.270Z,100197.59
2022-11-02T11:56:36.499Z,100198.56
2022-11-02T11:58:50.937Z,100203.59
2022-11-02T12:01:12.449Z,100203.41
2022-11-02T12:03:16.353Z,100209.41
2022-11-02T12:05:20.968Z,100203.91
2022-11-02T12:07:25.728Z,100202.13
2022-11-02T12:09:36.763Z,100200.28
2022-11-02T12:11:41.528Z,100192.09
2022-11-02T12:14:25.828Z,100182.91
2022-11-02T12:16:34.401Z,100191.06
2022-11-02T12:18:56.812Z,100185.56
2022-11-02T12:21:17.309Z,100187.53
2022-11-02T12:23:39.711Z,100191.06
2022-11-02T12:26:18.585Z,100194.47
2022-11-02T12:28:40.903Z,100194.47
2022-11-02T12:31:04.067Z,100200.94
2022-11-02T12:33:17.284Z,100195.44
2022-11-02T12:35:41.635Z,100196.09
2022-11-02T12:38:08.184Z,100185.63
2022-11-02T12:40:13.088Z,100177.16
2022-11-02T12:42:35.810Z,100188.34
2022-11-02T12:45:09.681Z,100191.38
2022-11-02T12:47:37.091Z,100181.31
2022-11-02T12:49:52.834Z,100176.47
2022-11-02T12:52:28.401Z,100190.09
2022-11-02T12:54:54.388Z,100190.81
2022-11-02T12:56:56.891Z,100183.09
2022-11-02T12:59:00.538Z,100190.31
2022-11-02T13:01:18.328Z,100182.53
2022-11-02T13:03:29.093Z,100182.44
2022-11-02T13:05:39.928Z,100177.97
2022-11-02T13:07:50.571Z,100180.50
2022-11-02T13:10:08.427Z,100183.31
2022-11-02T13:12:15.206Z,100174.03
2022-11-02T13:14:22.406Z,100174.16
2022-11-02T13:17:02.507Z,100181.47
2022-11-02T13:19:07.142Z,100177.50
2022-11-02T13:21:13.943Z,100179.34
2022-11-02T13:23:26.877Z,100184.81
2022-11-02T13:25:37.701Z,100172.13
2022-11-02T13:27:50.767Z,100175.81
2022-11-02T13:29:56.705Z,100167.34
2022-11-02T13:32:07.022Z,100179.81
2022-11-02T13:34:15.528Z,100181.66
2022-11-02T13:36:18.849Z,100182.41
2022-11-02T13:38:39.384Z,100179.16
2022-11-02T13:40:59.823Z,100177.16
2022-11-02T13:43:10.882Z,100182.41
2022-11-02T13:45:38.681Z,100185.28
2022-11-02T13:47:46.781Z,100189.16
2022-11-02T13:49:53.995Z,100191.13
2022-11-02T13:52:13.860Z,100191.94
2022-11-02T13:54:40.619Z,100193.78
2022-11-02T13:56:43.597Z,100198.00
2022-11-02T13:58:54.097Z,100199.72
2022-11-02T14:01:01.604Z,100199.91
2022-11-02T14:03:28.130Z,100205.44
2022-11-02T14:05:36.004Z,100199.84
2022-11-02T14:07:41.900Z,100197.91
2022-11-02T14:09:45.367Z,100205.72
2022-11-02T14:11:49.921Z,100201.28
2022-11-02T14:13:52.253Z,100207.56
2022-11-02T14:15:54.335Z,100201.16
2022-11-02T14:17:57.010Z,100201.16
2022-11-02T14:20:37.231Z,100209.53
2022-11-02T14:22:39.028Z,100203.00
2022-11-02T14:24:41.060Z,100215.59
2022-11-02T14:27:13.655Z,100212.59
2022-11-02T14:29:47.340Z,100208.22
2022-11-02T14:31:57.311Z,100204.63
2022-11-02T14:34:25.191Z,100208.44
2022-11-02T14:36:55.357Z,100208.38
2022-11-02T14:39:17.779Z,100208.38
2022-11-02T14:41:33.056Z,100208.78
2022-11-02T14:44:12.373Z,100208.84
2022-11-02T14:46:53.356Z,100203.50
2022-11-02T14:48:58.957Z,100197.75
2022-11-02T14:51:12.196Z,100197.81
2022-11-02T14:53:25.783Z,100201.50
2022-11-02T14:55:31.561Z,100210.34
2022-11-02T14:57:42.984Z,100206.88
2022-11-02T14:59:49.325Z,100213.16
2022-11-02T15:02:00.030Z,100214.25
2022-11-02T15:04:08.082Z,100212.53
2022-11-02T15:06:25.655Z,100211.88
2022-11-02T15:08:32.256Z,100210.69
2022-11-02T15:10:43.397Z,100218.97
2022-11-02T15:12:47.930Z,100219.78
2022-11-02T15:14:49.996Z,100217.94
2022-11-02T15:16:54.426Z,100218.81
2022-11-02T15:19:35.002Z,100220.09
2022-11-02T15:21:37.833Z,100220.66
2022-11-02T15:24:04.782Z,100233.75
2022-11-02T15:26:12.402Z,100231.66
2022-11-02T15:28:17.936Z,100231.81
2022-11-02T15:30:27.797Z,100241.72
2022-11-02T15:32:35.337Z,100240.09
2022-11-02T15:34:49.996Z,100235.00
2022-11-02T15:36:52.506Z,100243.78
2022-11-02T15:38:55.331Z,100237.41
2022-11-02T15:41:17.402Z,100242.75
2022-11-02T15:46:12.296Z,100252.16
2022-11-02T15:48:51.584Z,100255.72
2022-11-02T15:51:14.280Z,100253.03
2022-11-02T15:53:25.376Z,100261.91
2022-11-02T15:56:11.973Z,100260.44
2022-11-02T15:58:33.010Z,100262.34
2022-11-02T16:00:35.219Z,100277.53
2022-11-02T16:02:41.413Z,100263.97
2022-11-02T16:04:50.401Z,100264.84
2022-11-02T16:06:53.655Z,100267.53
2022-11-02T16:09:01.599Z,100267.06
2022-11-02T16:11:13.971Z,100266.91
2022-11-02T16:13:20.973Z,100266.81
2022-11-02T16:15:23.174Z,100271.59
2022-11-02T16:17:28.191Z,100270.66
2022-11-02T16:19:30.704Z,100280.63
2022-11-02T16:21:35.555Z,100275.31
2022-11-02T16:23:40.453Z,100277.00
2022-11-02T16:25:50.469Z,100273.81
2022-11-02T16:27:52.808Z,100278.13
2022-11-02T16:29:54.939Z,100273.09
2022-11-02T16:31:58.332Z,100285.69
2022-11-02T16:34:23.081Z,100285.19
2022-11-02T16:36:45.505Z,100280.13
2022-11-02T16:39:25.235Z,100270.59
2022-11-02T16:41:32.197Z,100272.13
2022-11-02T16:43:36.267Z,100273.75
2022-11-02T16:45:43.364Z,100277.31
2022-11-02T16:47:46.850Z,100282.69
2022-11-02T16:49:51.927Z,100279.06
2022-11-02T16:51:56.707Z,100263.69
2022-11-02T16:54:18.440Z,100271.97
2022-11-02T16:56:27.814Z,100271.84
2022-11-02T16:58:29.964Z,100270.28
2022-11-02T17:00:37.487Z,100279.59
2022-11-02T17:02:42.118Z,100277.41
2022-11-02T17:04:47.089Z,100279.16
2022-11-02T17:06:54.010Z,100286.22
2022-11-02T17:08:56.287Z,100279.09
2022-11-02T17:11:01.136Z,100285.72
2022-11-02T17:13:07.357Z,100278.75
2022-11-02T17:15:21.087Z,100286.13
2022-11-02T17:17:29.974Z,100279.78
2022-11-02T17:19:40.853Z,100282.63
2022-11-02T17:21:44.518Z,100291.50
2022-11-02T17:23:48.366Z,100282.50
2022-11-02T17:29:46.182Z,100280.19
2022-11-02T17:31:56.525Z,100280.28
2022-11-02T17:34:02.511Z,100278.44
2022-11-02T17:36:07.528Z,100276.06
2022-11-02T17:38:10.260Z,100283.38
2022-11-02T17:40:13.182Z,100286.88
2022-11-02T17:42:35.269Z,100291.19
2022-11-02T17:44:37.375Z,100287.59
2022-11-02T17:46:41.729Z,100294.22
2022-11-02T17:48:46.957Z,100288.78
2022-11-02T17:50:53.337Z,100285.63
2022-11-02T17:52:57.626Z,100289.81
2022-11-02T17:54:59.597Z,100283.63
2022-11-02T17:57:02.383Z,100290.91
2022-11-02T17:59:04.477Z,100290.03
2022-11-02T18:01:07.589Z,100282.72
2022-11-02T18:03:16.053Z,100280.22
2022-11-02T18:05:25.764Z,100278.31
2022-11-02T18:07:27.833Z,100281.47
2022-11-02T18:09:30.438Z,100278.00
2022-11-02T18:11:32.344Z,100277.94
2022-11-02T18:13:34.405Z,100275.44
2022-11-02T18:15:36.763Z,100277.06
2022-11-02T18:17:39.218Z,100285.22
2022-11-02T18:19:44.367Z,100286.88
2022-11-02T18:21:46.466Z,100279.53
2022-11-02T18:23:48.973Z,100280.34
2022-11-02T18:25:53.925Z,100283.06
2022-11-02T18:28:01.493Z,100296.03
2022-11-02T18:38:10.763Z,100294.63
2022-11-02T18:40:15.257Z,100294.13
2022-11-02T18:42:17.376Z,100287.66
2022-11-02T18:44:19.937Z,100291.50
2022-11-02T18:46:24.331Z,100295.94
2022-11-02T18:48:29.195Z,100298.38
2022-11-02T18:50:31.151Z,100299.91
2022-11-02T18:52:33.518Z,100293.41
2022-11-02T18:54:35.584Z,100293.25
2022-11-02T18:56:37.615Z,100297.34
2022-11-02T18:58:39.905Z,100288.94
2022-11-02T19:00:42.095Z,100297.84
2022-11-02T19:02:44.100Z,100297.84
2022-11-02T19:04:46.035Z,100301.38
2022-11-02T19:07:06.504Z,100290.91
2022-11-02T19:09:20.443Z,100291.00
2022-11-02T19:11:23.151Z,100296.41
2022-11-02T19:13:25.163Z,100293.97
2022-11-02T19:15:27.042Z,100287.38
2022-11-02T19:17:29.403Z,100296.53
2022-11-02T19:19:31.682Z,100304.53
2022-11-02T19:21:33.442Z,100290.09
2022-11-02T19:23:35.369Z,100294.72
2022-11-02T19:25:37.402Z,100287.31
2022-11-02T19:27:39.758Z,100293.44
2022-11-02T19:29:41.808Z,100307.81
2022-11-02T19:31:44.371Z,100299.19
2022-11-02T19:34:39.794Z,100295.81
2022-11-02T19:36:43.562Z,100298.63
2022-11-02T19:38:45.380Z,100300.34
2022-11-02T19:40:47.299Z,100301.31
2022-11-02T19:42:49.417Z,100297.81
2022-11-02T19:44:51.281Z,100306.59
2022-11-02T19:46:53.452Z,100299.72
2022-11-02T19:48:57.987Z,100309.69
2022-11-02T19:51:17.593Z,100310.78
2022-11-02T19:53:22.419Z,100312.41
2022-11-02T19:55:28.762Z,100312.59
2022-11-02T19:57:33.309Z,100317.97
2022-11-02T19:59:35.575Z,100314.28
2022-11-02T20:01:42.688Z,100312.53
2022-11-02T20:03:46.600Z,100316.88
2022-11-02T20:05:48.933Z,100316.34
2022-11-02T20:07:52.067Z,100314.38
2022-11-02T20:09:57.195Z,100314.44
2022-11-02T20:12:03.147Z,100317.44
2022-11-02T20:14:05.869Z,100318.38
2022-11-02T20:16:09.312Z,100325.56
2022-11-02T20:18:19.354Z,100323.72
2022-11-02T20:20:22.270Z,100310.25
2022-11-02T20:22:24.533Z,100306.47
2022-11-02T20:24:28.761Z,100309.13
2022-11-02T20:26:34.061Z,100307.28
2022-11-02T20:28:41.166Z,100307.34
2022-11-02T20:30:43.674Z,100310.84
2022-11-02T20:32:46.175Z,100313.63
2022-11-02T20:34:48.240Z,100309.38
2022-11-02T20:36:50.786Z,100320.34
2022-11-02T20:38:54.427Z,100319.47
2022-11-02T20:41:06.511Z,100309.38
2022-11-02T20:43:08.591Z,100311.16
2022-11-02T20:45:10.990Z,100310.13
2022-11-02T20:47:13.117Z,100312.19
2022-11-02T20:49:22.712Z,100313.09
2022-11-02T20:51:37.340Z,100312.09
2022-11-02T20:53:40.306Z,100312.09
2022-11-02T20:55:45.082Z,100307.84
2022-11-02T20:57:50.959Z,100310.59
2022-11-02T20:59:53.292Z,100294.00
2022-11-02T21:01:55.595Z,100304.97
2022-11-02T21:03:57.801Z,100305.75
2022-11-02T21:06:05.558Z,100305.94
2022-11-02T21:08:07.811Z,100303.09
2022-11-02T21:10:10.758Z,100308.50
2022-11-02T21:12:34.463Z,100313.91
2022-11-02T21:14:38.880Z,100315.00
2022-11-02T21:16:41.097Z,100309.66
2022-11-02T21:18:43.243Z,100302.38
2022-11-02T21:20:45.716Z,100314.06
2022-11-02T21:22:50.487Z,100306.97
2022-11-02T21:24:52.765Z,100312.28
2022-11-02T21:26:55.291Z,100304.16
2022-11-02T21:28:57.295Z,100306.88
2022-11-02T21:31:08.039Z,100307.13
2022-11-02T21:33:10.283Z,100309.47
2022-11-02T21:35:12.146Z,100308.66
2022-11-02T21:37:17.029Z,100306.09
2022-11-02T21:39:20.055Z,100308.03
2022-11-02T21:41:29.125Z,100312.44
2022-11-02T21:43:32.548Z,100313.19
2022-11-02T21:45:37.853Z,100308.84
2022-11-02T21:47:40.606Z,100314.06
2022-11-02T21:49:42.805Z,100310.59
2022-11-02T21:51:45.201Z,100315.28
2022-11-02T21:53:48.570Z,100315.97
2022-11-02T21:56:02.711Z,100317.28
2022-11-02T21:58:04.792Z,100316.84
2022-11-02T22:00:07.408Z,100328.63
2022-11-02T22:02:14.632Z,100322.41
2022-11-02T22:04:25.411Z,100324.38
2022-11-02T22:06:31.318Z,100325.84
2022-11-02T22:08:42.551Z,100320.56
2022-11-02T22:10:44.827Z,100321.16
2022-11-02T22:13:05.655Z,100317.66
2022-11-02T22:15:08.730Z,100321.53
2022-11-02T22:17:22.082Z,100330.53
2022-11-02T22:19:31.213Z,100326.13
2022-11-02T22:21:36.841Z,100323.47
2022-11-02T22:23:39.970Z,100324.38
2022-11-02T22:25:41.926Z,100328.47
2022-11-02T22:27:44.084Z,100333.16
2022-11-02T22:29:46.382Z,100334.97
2022-11-02T22:31:48.690Z,100333.16
2022-11-02T22:33:53.273Z,100332.25
2022-11-02T22:35:55.182Z,100341.34
2022-11-02T22:38:15.877Z,100340.34
2022-11-02T22:40:20.551Z,100337.69
2022-11-02T22:42:22.628Z,100335.13
2022-11-02T22:44:24.725Z,100334.31
2022-11-02T22:46:27.744Z,100330.47
2022-11-02T22:48:33.174Z,100332.34
2022-11-02T22:50:35.315Z,100325.09
2022-11-02T22:52:37.439Z,100329.44
2022-11-02T22:54:39.725Z,100324.28
2022-11-02T22:56:43.225Z,100319.03
2022-11-02T22:58:47.165Z,100327.16
2022-11-02T23:00:49.419Z,100319.91
2022-11-02T23:02:51.867Z,100324.13
2022-11-02T23:04:53.955Z,100321.53
2022-11-02T23:06:56.030Z,100316.16
2022-11-02T23:08:59.202Z,100314.28
2022-11-02T23:11:20.918Z,100323.41
2022-11-02T23:13:23.551Z,100322.53
2022-11-02T23:15:25.786Z,100321.72
2022-11-02T23:17:27.969Z,100321.06
2022-11-02T23:19:30.190Z,100323.72
2022-11-02T23:21:32.825Z,100312.59
2022-11-02T23:23:53.631Z,100315.44
2022-11-02T23:25:57.491Z,100315.44
2022-11-02T23:28:18.501Z,100322.44
2022-11-02T23:30:39.034Z,100319.06
2022-11-02T23:32:42.100Z,100325.16
2022-11-02T23:35:04.119Z,100318.81
2022-11-02T23:37:06.706Z,100325.25
2022-11-02T23:39:27.338Z,100325.31
2022-11-02T23:41:38.923Z,100331.75
2022-11-02T23:43:41.370Z,100326.28
2022-11-02T23:45:43.325Z,100323.47
2022-11-02T23:47:57.283Z,100319.97
2022-11-02T23:49:59.313Z,100318.16
2022-11-02T23:52:40.175Z,100325.41
2022-11-02T23:55:01.291Z,100325.16
2022-11-02T23:57:03.498Z,100325.41
2022-11-02T23:59:06.711Z,100328.16
